createdAt,value
2022-10-19T00:01:15.964Z,10.90
2022-10-19T00:06:31.505Z,10.25
2022-10-19T00:09:04.250Z,10.52
2022-10-19T00:11:33.006Z,10.10
2022-10-19T00:14:00.856Z,10.35
2022-10-19T00:16:32.030Z,10.40
2022-10-19T00:19:01.162Z,10.00
2022-10-19T00:21:28.641Z,9.13
2022-10-19T00:23:55.557Z,10.32
2022-10-19T00:26:22.581Z,9.45
2022-10-19T00:28:49.278Z,10.55
2022-10-19T00:31:18.123Z,10.52
2022-10-19T00:33:46.954Z,10.27
2022-10-19T00:36:27.962Z,11.35
2022-10-19T00:38:58.545Z,10.93
2022-10-19T00:41:31.169Z,11.65
2022-10-19T00:44:27.777Z,12.48
2022-10-19T00:47:01.839Z,12.15
2022-10-19T00:49:36.343Z,12.38
2022-10-19T00:52:08.664Z,12.77
2022-10-19T00:54:38.934Z,12.02
2022-10-19T00:57:06.770Z,13.07
2022-10-19T00:59:34.502Z,11.48
2022-10-19T01:02:04.645Z,12.98
2022-10-19T01:04:35.230Z,12.38
2022-10-19T01:07:04.911Z,11.77
2022-10-19T01:09:31.593Z,12.02
2022-10-19T01:12:08.970Z,12.23
2022-10-19T01:15:04.216Z,12.32
2022-10-19T01:18:10.861Z,12.38
2022-10-19T01:20:50.218Z,11.50
2022-10-19T01:23:54.414Z,11.88
2022-10-19T01:26:47.550Z,12.07
2022-10-19T01:29:47.967Z,11.75
2022-10-19T01:32:40.720Z,12.52
2022-10-19T01:35:40.254Z,11.70
2022-10-19T01:38:39.518Z,13.00
2022-10-19T01:41:25.114Z,12.55
2022-10-19T01:44:24.966Z,13.60
2022-10-19T01:46:58.182Z,13.02
2022-10-19T01:49:59.125Z,14.20
2022-10-19T01:52:27.218Z,13.88
2022-10-19T01:55:00.606Z,14.07
2022-10-19T01:57:33.257Z,14.57
2022-10-19T02:00:07.133Z,14.00
2022-10-19T02:02:42.223Z,12.60
2022-10-19T02:05:11.361Z,14.00
2022-10-19T02:07:40.630Z,12.60
2022-10-19T02:10:08.120Z,14.07
2022-10-19T02:12:36.785Z,13.88
2022-10-19T02:15:14.378Z,13.15
2022-10-19T02:17:47.743Z,13.80
2022-10-19T02:20:15.887Z,13.45
2022-10-19T02:22:42.861Z,14.80
2022-10-19T02:25:10.537Z,14.18
2022-10-19T02:27:41.683Z,13.40
2022-10-19T02:30:14.969Z,13.43
2022-10-19T02:32:42.578Z,12.45
2022-10-19T02:35:11.295Z,12.77
2022-10-19T02:37:38.515Z,12.85
2022-10-19T02:40:06.574Z,13.40
2022-10-19T02:42:40.818Z,12.90
2022-10-19T02:45:28.442Z,12.93
2022-10-19T02:48:04.166Z,12.52
2022-10-19T02:50:31.122Z,14.02
2022-10-19T02:53:01.046Z,13.00
2022-10-19T02:55:30.180Z,12.43
2022-10-19T02:57:57.282Z,13.05
2022-10-19T03:00:23.915Z,13.15
2022-10-19T03:02:50.506Z,12.38
2022-10-19T03:05:17.150Z,13.77
2022-10-19T03:07:43.774Z,11.95
2022-10-19T03:10:10.402Z,11.88
2022-10-19T03:12:37.020Z,12.02
2022-10-19T03:15:04.673Z,11.93
2022-10-19T03:17:31.564Z,10.95
2022-10-19T03:19:58.347Z,11.80
2022-10-19T03:22:24.955Z,12.18
2022-10-19T03:24:51.546Z,11.48
2022-10-19T03:27:18.130Z,12.57
2022-10-19T03:29:44.742Z,11.82
2022-10-19T03:32:11.328Z,11.70
2022-10-19T03:34:37.928Z,11.25
2022-10-19T03:37:04.498Z,10.15
2022-10-19T03:39:31.115Z,10.23
2022-10-19T03:41:57.686Z,12.65
2022-10-19T03:44:24.303Z,10.30
2022-10-19T03:46:51.905Z,9.98
2022-10-19T03:49:18.818Z,11.10
2022-10-19T03:51:45.387Z,10.43
2022-10-19T03:54:16.416Z,11.82
2022-10-19T03:56:43.559Z,11.15
2022-10-19T03:59:14.542Z,10.98
2022-10-19T04:01:45.110Z,9.93
2022-10-19T04:04:16.182Z,10.60
2022-10-19T04:06:45.963Z,11.93
2022-10-19T04:09:15.796Z,9.63
2022-10-19T04:11:43.127Z,9.50
2022-10-19T04:14:19.007Z,8.95
2022-10-19T04:16:53.691Z,7.97
2022-10-19T04:19:20.289Z,8.27
2022-10-19T04:21:49.338Z,8.43
2022-10-19T04:24:18.412Z,7.80
2022-10-19T04:26:50.998Z,8.05
2022-10-19T04:29:20.003Z,7.82
2022-10-19T04:31:49.920Z,7.65
2022-10-19T04:34:17.581Z,7.78
2022-10-19T04:36:44.485Z,8.32
2022-10-19T04:39:11.386Z,7.85
2022-10-19T04:41:38.623Z,8.13
2022-10-19T04:44:08.921Z,7.45
2022-10-19T04:46:35.592Z,8.20
2022-10-19T04:49:04.153Z,8.35
2022-10-19T04:51:31.188Z,7.95
2022-10-19T04:53:59.533Z,9.68
2022-10-19T04:56:27.546Z,8.77
2022-10-19T04:58:56.693Z,9.65
2022-10-19T05:01:25.042Z,9.43
2022-10-19T05:03:58.028Z,8.55
2022-10-19T05:06:25.379Z,8.20
2022-10-19T05:08:52.454Z,9.43
2022-10-19T05:11:20.110Z,8.93
2022-10-19T05:13:47.593Z,8.00
2022-10-19T05:16:18.860Z,8.73
2022-10-19T05:18:58.863Z,8.55
2022-10-19T05:21:28.417Z,8.20
2022-10-19T05:23:56.683Z,9.35
2022-10-19T05:26:27.685Z,7.65
2022-10-19T05:28:57.851Z,8.27
2022-10-19T05:31:28.179Z,7.97
2022-10-19T05:33:56.194Z,6.75
2022-10-19T05:36:32.085Z,7.05
2022-10-19T05:39:01.665Z,7.75
2022-10-19T05:41:28.433Z,7.93
2022-10-19T05:43:59.049Z,7.10
2022-10-19T05:46:28.015Z,7.30
2022-10-19T05:48:58.941Z,8.00
2022-10-19T05:51:27.470Z,9.82
2022-10-19T05:53:55.695Z,10.45
2022-10-19T05:56:28.563Z,14.80
2022-10-19T05:58:57.342Z,17.33
2022-10-19T06:01:24.510Z,19.63
2022-10-19T06:03:53.316Z,12.18
2022-10-19T06:06:20.776Z,8.60
2022-10-19T06:08:48.551Z,15.50
2022-10-19T06:11:27.985Z,11.32
2022-10-19T06:13:58.119Z,7.40
2022-10-19T06:16:26.681Z,7.57
2022-10-19T06:18:54.048Z,7.63
2022-10-19T06:21:24.737Z,7.43
2022-10-19T06:23:56.937Z,7.60
2022-10-19T06:26:24.765Z,6.72
2022-10-19T06:29:00.154Z,7.47
2022-10-19T06:31:31.742Z,6.88
2022-10-19T06:33:58.545Z,6.75
2022-10-19T06:36:29.696Z,6.13
2022-10-19T06:38:56.948Z,6.53
2022-10-19T06:41:23.880Z,6.10
2022-10-19T06:43:52.287Z,7.55
2022-10-19T06:46:23.018Z,7.32
2022-10-19T06:48:55.485Z,6.32
2022-10-19T06:51:23.191Z,6.80
2022-10-19T06:53:52.870Z,6.40
2022-10-19T06:56:24.369Z,6.05
2022-10-19T06:58:51.196Z,5.53
2022-10-19T07:01:18.355Z,6.90
2022-10-19T07:03:45.124Z,6.20
2022-10-19T07:06:13.561Z,6.18
2022-10-19T07:08:42.440Z,4.82
2022-10-19T07:11:18.609Z,5.05
2022-10-19T07:13:45.373Z,4.57
2022-10-19T07:16:19.829Z,4.28
2022-10-19T07:18:52.189Z,6.38
2022-10-19T07:21:21.148Z,19.20
2022-10-19T07:23:48.265Z,7.82
2022-10-19T07:26:23.320Z,6.05
2022-10-19T07:28:50.552Z,5.47
2022-10-19T07:31:20.471Z,5.28
2022-10-19T07:33:51.814Z,5.72
2022-10-19T07:36:20.767Z,5.65
2022-10-19T07:38:47.469Z,5.13
2022-10-19T07:41:19.320Z,4.95
2022-10-19T07:43:47.683Z,5.38
2022-10-19T07:46:21.648Z,5.43
2022-10-19T07:48:49.669Z,5.20
2022-10-19T07:51:18.769Z,5.25
2022-10-19T07:53:45.825Z,5.03
2022-10-19T07:56:16.377Z,5.25
2022-10-19T07:58:43.597Z,5.25
2022-10-19T08:01:14.624Z,5.28
2022-10-19T08:04:48.644Z,4.80
2022-10-19T08:06:29.038Z,5.20
2022-10-19T08:08:56.223Z,4.75
2022-10-19T08:11:27.227Z,4.88
2022-10-19T08:13:55.349Z,5.55
2022-10-19T08:16:29.505Z,4.63
2022-10-19T08:19:00.219Z,5.22
2022-10-19T08:21:29.799Z,4.70
2022-10-19T08:23:57.076Z,4.70
2022-10-19T08:26:25.039Z,5.13
2022-10-19T08:28:51.829Z,4.35
2022-10-19T08:31:22.163Z,4.50
2022-10-19T08:33:52.001Z,4.20
2022-10-19T08:36:22.158Z,4.35
2022-10-19T08:38:49.654Z,4.25
2022-10-19T08:41:38.078Z,4.53
2022-10-19T08:44:29.750Z,4.28
2022-10-19T08:47:16.510Z,3.58
2022-10-19T08:49:45.635Z,3.40
2022-10-19T08:52:22.714Z,3.53
2022-10-19T08:54:57.118Z,3.58
2022-10-19T08:58:03.579Z,10.38
2022-10-19T09:00:49.595Z,5.20
2022-10-19T09:03:57.775Z,4.22
2022-10-19T09:07:01.587Z,3.83
2022-10-19T09:09:31.816Z,3.88
2022-10-19T09:12:06.184Z,4.30
2022-10-19T09:14:45.549Z,4.38
2022-10-19T09:17:16.769Z,4.35
2022-10-19T09:19:43.375Z,4.15
2022-10-19T09:22:25.701Z,4.28
2022-10-19T09:25:03.760Z,4.88
2022-10-19T09:27:41.020Z,4.35
2022-10-19T09:30:20.752Z,4.68
2022-10-19T09:32:52.156Z,4.75
2022-10-19T09:35:26.639Z,5.00
2022-10-19T09:37:54.915Z,5.28
2022-10-19T09:40:29.502Z,4.78
2022-10-19T09:42:58.186Z,4.90
2022-10-19T09:45:45.063Z,5.10
2022-10-19T09:48:50.556Z,4.40
2022-10-19T09:51:18.547Z,4.90
2022-10-19T09:53:53.206Z,5.00
2022-10-19T09:56:22.056Z,4.78
2022-10-19T09:58:52.380Z,5.28
2022-10-19T10:01:40.109Z,4.75
2022-10-19T10:04:17.932Z,5.63
2022-10-19T10:06:48.508Z,4.82
2022-10-19T10:09:25.780Z,5.20
2022-10-19T10:11:57.734Z,4.90
2022-10-19T10:14:32.963Z,5.13
2022-10-19T10:17:13.238Z,4.80
2022-10-19T10:19:52.231Z,4.43
2022-10-19T10:22:36.839Z,4.55
2022-10-19T10:25:17.117Z,4.43
2022-10-19T10:28:02.173Z,4.63
2022-10-19T10:30:35.276Z,4.68
2022-10-19T10:33:13.402Z,4.53
2022-10-19T10:35:53.443Z,5.10
2022-10-19T10:38:25.986Z,4.43
2022-10-19T10:41:00.037Z,4.93
2022-10-19T10:43:34.532Z,5.45
2022-10-19T10:46:15.044Z,4.00
2022-10-19T10:48:53.346Z,4.38
2022-10-19T10:51:54.429Z,3.67
2022-10-19T10:54:31.192Z,4.10
2022-10-19T10:57:16.694Z,4.13
2022-10-19T11:00:10.959Z,3.40
2022-10-19T11:02:58.428Z,3.83
2022-10-19T11:05:30.924Z,3.50
2022-10-19T11:08:18.667Z,3.35
2022-10-19T11:11:06.903Z,3.30
2022-10-19T11:13:48.863Z,3.20
2022-10-19T11:16:19.771Z,2.67
2022-10-19T11:18:52.897Z,3.28
2022-10-19T11:21:27.571Z,2.65
2022-10-19T11:24:10.452Z,3.63
2022-10-19T11:27:14.456Z,2.63
2022-10-19T11:29:47.081Z,2.58
2022-10-19T11:32:52.921Z,2.70
2022-10-19T11:35:34.846Z,3.53
2022-10-19T11:38:45.818Z,3.05
2022-10-19T11:41:29.716Z,2.88
2022-10-19T11:44:40.077Z,2.60
2022-10-19T11:48:04.642Z,2.67
2022-10-19T11:50:58.960Z,3.28
2022-10-19T11:54:02.839Z,3.70
2022-10-19T11:57:11.441Z,3.00
2022-10-19T12:00:33.888Z,2.30
2022-10-19T12:03:30.202Z,2.72
2022-10-19T12:06:21.534Z,2.63
2022-10-19T12:09:38.590Z,2.53
2022-10-19T12:12:25.144Z,2.50
2022-10-19T12:15:12.063Z,2.92
2022-10-19T12:17:42.177Z,2.95
2022-10-19T12:20:26.889Z,2.92
2022-10-19T12:22:54.162Z,2.75
2022-10-19T12:25:21.799Z,3.05
2022-10-19T12:27:50.593Z,2.80
2022-10-19T12:30:23.622Z,3.15
2022-10-19T12:33:13.870Z,3.05
2022-10-19T12:35:55.220Z,3.15
2022-10-19T12:38:49.487Z,3.30
2022-10-19T12:41:52.303Z,2.88
2022-10-19T12:44:48.711Z,3.08
2022-10-19T12:47:22.459Z,2.72
2022-10-19T12:49:50.713Z,2.55
2022-10-19T12:52:44.415Z,3.00
2022-10-19T12:55:26.805Z,2.85
2022-10-19T12:58:06.844Z,3.25
2022-10-19T13:00:37.622Z,3.10
2022-10-19T13:03:04.235Z,2.50
2022-10-19T13:05:32.982Z,2.83
2022-10-19T13:08:03.128Z,2.42
2022-10-19T13:10:32.094Z,2.90
2022-10-19T13:12:59.454Z,2.67
2022-10-19T13:15:35.051Z,3.30
2022-10-19T13:18:12.952Z,2.50
2022-10-19T13:23:06.985Z,3.25
2022-10-19T13:25:35.737Z,2.72
2022-10-19T13:28:28.208Z,3.22
2022-10-19T13:31:06.081Z,3.20
2022-10-19T13:33:45.739Z,3.17
2022-10-19T13:36:12.682Z,2.70
2022-10-19T13:38:46.935Z,3.10
2022-10-19T13:41:22.549Z,3.88
2022-10-19T13:44:01.070Z,3.05
2022-10-19T13:46:30.625Z,2.83
2022-10-19T13:49:21.978Z,2.95
2022-10-19T13:52:03.572Z,3.50
2022-10-19T13:54:57.329Z,3.15
2022-10-19T13:57:54.712Z,3.13
2022-10-19T14:00:25.288Z,3.10
2022-10-19T14:03:31.125Z,2.30
2022-10-19T14:06:27.559Z,2.95
2022-10-19T14:09:29.710Z,2.90
2022-10-19T14:12:07.348Z,2.83
2022-10-19T14:14:44.401Z,2.88
2022-10-19T14:17:20.544Z,2.90
2022-10-19T14:19:52.196Z,2.70
2022-10-19T14:22:33.742Z,2.90
2022-10-19T14:25:07.376Z,2.83
2022-10-19T14:27:35.101Z,3.03
2022-10-19T14:30:02.726Z,2.20
2022-10-19T14:32:34.241Z,2.70
2022-10-19T14:35:20.195Z,3.50
2022-10-19T14:37:47.031Z,2.85
2022-10-19T14:40:32.095Z,2.30
2022-10-19T14:43:01.127Z,2.35
2022-10-19T14:45:32.098Z,2.40
2022-10-19T14:48:05.543Z,2.20
2022-10-19T14:50:48.799Z,2.20
2022-10-19T14:54:17.283Z,2.58
2022-10-19T14:57:08.746Z,2.08
2022-10-19T15:00:01.584Z,1.80
2022-10-19T15:02:37.515Z,2.30
2022-10-19T15:05:06.851Z,2.17
2022-10-19T15:07:42.184Z,1.88
2022-10-19T15:10:24.691Z,2.00
2022-10-19T15:13:03.440Z,2.00
2022-10-19T15:15:33.951Z,1.80
2022-10-19T15:18:00.587Z,1.88
2022-10-19T15:20:44.126Z,2.30
2022-10-19T15:23:42.991Z,1.90
2022-10-19T15:26:24.543Z,2.08
2022-10-19T15:28:51.876Z,2.25
2022-10-19T15:31:24.803Z,1.90
2022-10-19T15:33:58.527Z,1.83
2022-10-19T15:36:26.603Z,2.35
2022-10-19T15:39:33.039Z,2.10
2022-10-19T15:42:38.782Z,2.38
2022-10-19T15:45:09.177Z,1.98
2022-10-19T15:47:36.024Z,1.90
2022-10-19T15:50:02.962Z,2.35
2022-10-19T15:52:33.462Z,2.35
2022-10-19T15:55:01.582Z,2.13
2022-10-19T15:57:35.220Z,2.38
2022-10-19T16:00:17.590Z,2.20
2022-10-19T16:02:44.529Z,2.20
2022-10-19T16:05:11.665Z,2.10
2022-10-19T16:07:41.078Z,2.10
2022-10-19T16:10:15.562Z,1.70
2022-10-19T16:12:42.372Z,1.95
2022-10-19T16:15:13.657Z,7.38
2022-10-19T16:17:40.526Z,7.97
2022-10-19T16:20:09.990Z,8.48
2022-10-19T16:22:36.621Z,5.00
2022-10-19T16:25:04.034Z,4.90
2022-10-19T16:27:30.637Z,4.20
2022-10-19T16:29:57.252Z,6.97
2022-10-19T16:32:23.838Z,4.57
2022-10-19T16:34:50.401Z,4.85
2022-10-19T16:37:16.954Z,3.20
2022-10-19T16:39:43.529Z,2.10
2022-10-19T16:42:10.206Z,1.95
2022-10-19T16:44:36.769Z,2.63
2022-10-19T16:47:03.875Z,1.90
2022-10-19T16:49:32.128Z,2.10
2022-10-19T16:52:00.455Z,2.47
2022-10-19T16:54:29.779Z,2.65
2022-10-19T16:56:56.408Z,2.70
2022-10-19T16:59:22.993Z,3.00
2022-10-19T17:01:50.122Z,2.45
2022-10-19T17:04:17.932Z,3.00
2022-10-19T17:06:44.686Z,2.80
2022-10-19T17:11:57.988Z,14.75
2022-10-19T17:14:24.562Z,13.32
2022-10-19T17:16:51.162Z,9.48
2022-10-19T17:19:17.804Z,10.68
2022-10-19T17:21:44.387Z,8.15
2022-10-19T17:24:21.057Z,6.15
2022-10-19T17:26:50.234Z,6.05
2022-10-19T17:29:17.179Z,8.40
2022-10-19T17:31:44.075Z,16.48
2022-10-19T17:34:11.175Z,10.45
2022-10-19T17:36:44.559Z,6.68
2022-10-19T17:39:17.716Z,7.25
2022-10-19T17:41:46.312Z,9.73
2022-10-19T17:44:13.127Z,8.20
2022-10-19T17:46:39.699Z,7.05
2022-10-19T17:49:06.631Z,6.40
2022-10-19T17:51:36.062Z,9.07
2022-10-19T17:54:13.204Z,6.70
2022-10-19T17:56:45.200Z,5.38
2022-10-19T17:59:12.913Z,5.30
2022-10-19T18:01:39.910Z,5.53
2022-10-19T18:04:06.719Z,5.28
2022-10-19T18:06:36.447Z,6.72
2022-10-19T18:09:06.557Z,6.43
2022-10-19T18:11:43.035Z,6.72
2022-10-19T18:14:11.889Z,7.00
2022-10-19T18:16:45.399Z,6.43
2022-10-19T18:19:14.943Z,6.72
2022-10-19T18:21:44.114Z,7.38
2022-10-19T18:24:19.907Z,9.55
2022-10-19T18:26:48.634Z,8.10
2022-10-19T18:29:20.299Z,8.00
2022-10-19T18:31:52.091Z,7.13
2022-10-19T18:34:23.191Z,7.82
2022-10-19T18:36:50.495Z,8.50
2022-10-19T18:39:18.040Z,7.03
2022-10-19T18:41:44.795Z,6.95
2022-10-19T18:44:13.304Z,6.60
2022-10-19T18:46:40.322Z,6.18
2022-10-19T18:49:08.593Z,6.90
2022-10-19T18:51:36.018Z,6.25
2022-10-19T18:54:11.929Z,6.57
2022-10-19T18:56:38.547Z,6.75
2022-10-19T18:59:05.493Z,6.30
2022-10-19T19:01:32.453Z,6.78
2022-10-19T19:04:07.145Z,6.38
2022-10-19T19:06:36.060Z,6.75
2022-10-19T19:09:07.703Z,6.32
2022-10-19T19:11:37.396Z,6.55
2022-10-19T19:14:10.100Z,6.32
2022-10-19T19:16:38.800Z,6.43
2022-10-19T19:19:07.104Z,6.07
2022-10-19T19:21:36.303Z,5.75
2022-10-19T19:24:16.350Z,6.07
2022-10-19T19:26:48.253Z,6.25
2022-10-19T19:29:15.943Z,5.80
2022-10-19T19:31:42.689Z,5.47
2022-10-19T19:34:09.687Z,6.20
2022-10-19T19:36:38.407Z,6.43
2022-10-19T19:39:05.315Z,6.32
2022-10-19T19:41:33.958Z,6.22
2022-10-19T19:44:00.743Z,5.90
2022-10-19T19:46:27.407Z,5.72
2022-10-19T19:49:03.375Z,5.72
2022-10-19T19:51:31.843Z,5.47
2022-10-19T19:53:59.585Z,5.72
2022-10-19T19:56:26.817Z,4.90
2022-10-19T19:58:59.239Z,4.57
2022-10-19T20:01:27.015Z,4.93
2022-10-19T20:03:53.850Z,5.22
2022-10-19T20:06:23.696Z,5.43
2022-10-19T20:08:53.286Z,5.50
2022-10-19T20:11:19.996Z,5.18
2022-10-19T20:13:46.578Z,5.75
2022-10-19T20:16:16.927Z,4.93
2022-10-19T20:18:46.886Z,4.05
2022-10-19T20:21:14.719Z,5.22
2022-10-19T20:23:45.540Z,5.53
2022-10-19T20:26:23.571Z,4.90
2022-10-19T20:28:50.931Z,3.85
2022-10-19T20:31:18.770Z,5.55
2022-10-19T20:33:47.329Z,5.03
2022-10-19T20:36:20.062Z,4.85
2022-10-19T20:38:49.753Z,4.70
2022-10-19T20:41:18.926Z,4.68
2022-10-19T20:43:45.687Z,3.95
2022-10-19T20:46:20.870Z,5.05
2022-10-19T20:48:48.009Z,4.90
2022-10-19T20:51:21.318Z,4.53
2022-10-19T20:53:50.442Z,4.57
2022-10-19T20:56:23.553Z,4.95
2022-10-19T20:59:00.070Z,4.15
2022-10-19T21:01:29.618Z,4.50
2022-10-19T21:04:00.369Z,4.60
2022-10-19T21:06:30.625Z,3.80
2022-10-19T21:08:59.209Z,4.55
2022-10-19T21:11:32.139Z,6.05
2022-10-19T21:14:02.629Z,5.07
2022-10-19T21:16:33.421Z,4.55
2022-10-19T21:19:01.978Z,5.15
2022-10-19T21:21:35.278Z,9.07
2022-10-19T21:24:19.087Z,8.18
2022-10-19T21:26:47.181Z,5.97
2022-10-19T21:29:15.874Z,7.43
2022-10-19T21:31:48.644Z,7.03
2022-10-19T21:34:27.967Z,6.43
2022-10-19T21:36:55.645Z,4.72
2022-10-19T21:39:22.782Z,4.70
2022-10-19T21:41:49.891Z,4.22
2022-10-19T21:44:18.154Z,4.65
2022-10-19T21:46:47.303Z,4.53
2022-10-19T21:49:14.034Z,4.35
2022-10-19T21:51:53.821Z,4.50
2022-10-19T21:54:24.753Z,4.53
2022-10-19T21:56:52.959Z,4.65
2022-10-19T21:59:19.584Z,5.15
2022-10-19T22:01:46.202Z,4.40
2022-10-19T22:04:17.616Z,4.72
2022-10-19T22:06:45.242Z,4.95
2022-10-19T22:09:17.091Z,4.30
2022-10-19T22:11:44.292Z,4.40
2022-10-19T22:14:14.155Z,4.68
2022-10-19T22:16:41.670Z,4.38
2022-10-19T22:19:09.807Z,5.07
2022-10-19T22:24:14.355Z,4.68
2022-10-19T22:26:50.481Z,4.70
2022-10-19T22:29:17.386Z,4.53
2022-10-19T22:31:44.151Z,5.00
2022-10-19T22:34:16.583Z,3.92
2022-10-19T22:36:44.588Z,4.35
2022-10-19T22:39:12.136Z,4.53
2022-10-19T22:41:38.753Z,3.88
2022-10-19T22:44:05.661Z,4.18
2022-10-19T22:46:32.388Z,3.55
2022-10-19T22:48:59.110Z,4.90
2022-10-19T22:51:26.131Z,3.90
2022-10-19T22:53:52.729Z,4.00
2022-10-19T22:56:19.310Z,3.70
2022-10-19T22:58:45.895Z,4.63
2022-10-19T23:01:15.276Z,4.35
2022-10-19T23:03:42.567Z,4.00
2022-10-19T23:06:12.575Z,4.15
2022-10-19T23:08:39.797Z,4.10
2022-10-19T23:11:07.378Z,4.05
2022-10-19T23:13:34.011Z,3.65
2022-10-19T23:16:00.572Z,3.92
2022-10-19T23:18:27.247Z,4.07
2022-10-19T23:20:59.484Z,3.80
2022-10-19T23:23:28.052Z,4.00
2022-10-19T23:26:18.447Z,4.25
2022-10-19T23:28:48.000Z,3.83
2022-10-19T23:31:26.373Z,4.20
2022-10-19T23:33:53.836Z,3.95
2022-10-19T23:36:27.586Z,4.15
2022-10-19T23:38:56.704Z,3.78
2022-10-19T23:41:24.019Z,4.13
2022-10-19T23:43:50.931Z,3.97
2022-10-19T23:46:17.591Z,4.07
2022-10-19T23:48:44.276Z,4.00
2022-10-19T23:51:18.466Z,4.00
2022-10-19T23:53:47.575Z,4.25
2022-10-19T23:56:20.518Z,3.70
2022-10-19T23:58:47.811Z,3.67
